Time;durP1;ratioP1;P1;durP2;ratioP2;P2;SDS_P1;SDS_P2;PMS_P1;PMS_P2;Temp;Humidity;BMP_temperature;BMP_pressure;BME280_temperature;BME280_humidity;BME280_pressure;Samples;Min_cycle;Max_cycle;Signal;HPM_P1;HPM_P2
2023/08/27 00:01:25;;;;;;;34.53;14.43;;;;;;;14.70;100.00;98783.16;4859197;29;20045;-60
2023/08/27 00:03:50;;;;;;;41.30;15.38;;;;;;;14.71;100.00;98784.00;4858161;29;20078;-59
2023/08/27 00:06:16;;;;;;;30.88;13.77;;;;;;;14.69;100.00;98778.91;4859437;29;20516;-62
2023/08/27 00:08:41;;;;;;;32.35;13.95;;;;;;;14.74;100.00;98786.09;4859219;29;20056;-59
2023/08/27 00:11:07;;;;;;;33.83;14.10;;;;;;;14.69;100.00;98789.59;4859030;29;20046;-60
2023/08/27 00:13:33;;;;;;;40.55;14.95;;;;;;;14.69;100.00;98778.91;4859399;29;20473;-60
2023/08/27 00:15:58;;;;;;;30.02;14.63;;;;;;;14.71;100.00;98774.09;4859084;29;20105;-59
2023/08/27 00:18:24;;;;;;;32.92;15.55;;;;;;;14.73;100.00;98774.59;4859481;29;20109;-59
2023/08/27 00:20:50;;;;;;;32.25;15.15;;;;;;;14.74;100.00;98778.09;4857863;29;20128;-61
2023/08/27 00:23:16;;;;;;;28.50;13.60;;;;;;;14.75;100.00;98767.13;4857877;29;20101;-60
2023/08/27 00:25:45;;;;;;;25.85;13.98;;;;;;;14.73;100.00;98761.28;4859038;29;20080;-59
2023/08/27 00:28:14;;;;;;;30.33;14.85;;;;;;;14.74;100.00;98757.53;4859385;29;20045;-60
2023/08/27 00:30:41;;;;;;;27.38;14.40;;;;;;;14.79;100.00;98755.91;4858151;29;20597;-60
2023/08/27 00:33:07;;;;;;;29.25;15.00;;;;;;;14.82;100.00;98755.34;4861726;29;20049;-59
2023/08/27 00:35:33;;;;;;;25.05;14.75;;;;;;;14.83;100.00;98751.59;4861305;29;20069;-60
2023/08/27 00:37:58;;;;;;;23.50;14.05;;;;;;;14.84;100.00;98756.66;4861148;29;20053;-59
2023/08/27 00:40:28;;;;;;;20.58;12.63;;;;;;;14.86;100.00;98753.72;4861931;29;20045;-61
2023/08/27 00:42:53;;;;;;;16.33;10.65;;;;;;;14.85;100.00;98749.44;4862896;29;20045;-58
2023/08/27 00:45:19;;;;;;;21.13;12.23;;;;;;;14.84;100.00;98764.66;4862986;29;20045;-61
2023/08/27 00:47:45;;;;;;;15.30;10.82;;;;;;;14.90;100.00;98760.06;4863303;29;20060;-60
2023/08/27 00:50:11;;;;;;;11.65;8.35;;;;;;;14.88;100.00;98760.38;4861518;29;20090;-61
2023/08/27 00:52:37;;;;;;;12.82;8.57;;;;;;;14.87;100.00;98764.09;4862785;29;20054;-60
2023/08/27 00:55:03;;;;;;;15.13;8.95;;;;;;;14.91;99.63;98764.31;4862646;29;20102;-61
2023/08/27 00:57:30;;;;;;;9.18;6.93;;;;;;;14.87;98.33;98764.09;4861330;29;20401;-59
2023/08/27 00:59:57;;;;;;;12.20;8.02;;;;;;;14.86;98.25;98757.19;4861175;29;20120;-60
2023/08/27 01:02:24;;;;;;;10.05;7.72;;;;;;;14.86;98.64;98754.50;4861077;29;20081;-58
2023/08/27 01:04:50;;;;;;;12.50;8.15;;;;;;;14.90;98.34;98752.06;4861342;29;20564;-58
2023/08/27 01:07:26;;;;;;;13.68;8.68;;;;;;;14.88;98.22;98748.88;4860377;29;20136;-58
2023/08/27 01:10:04;;;;;;;10.38;8.18;;;;;;;14.82;98.87;98758.78;4860641;29;20037;-57
2023/08/27 01:12:36;;;;;;;12.52;8.35;;;;;;;14.82;99.65;98750.00;4860490;29;20050;-58
2023/08/27 01:15:04;;;;;;;12.55;9.02;;;;;;;14.86;99.02;98754.50;4845041;29;20053;-58
2023/08/27 01:17:31;;;;;;;13.00;8.88;;;;;;;14.84;99.21;98745.97;4860741;29;20504;-58
2023/08/27 01:19:58;;;;;;;14.57;9.05;;;;;;;14.82;99.47;98748.13;4845298;29;20053;-57
2023/08/27 01:22:24;;;;;;;12.40;8.32;;;;;;;14.83;99.14;98741.72;4859669;29;20071;-58
2023/08/27 01:24:49;;;;;;;13.65;8.27;;;;;;;14.81;98.71;98751.09;4860867;29;20045;-59
2023/08/27 01:27:33;;;;;;;13.60;8.48;;;;;;;14.76;99.11;98735.91;4860807;29;20156;-59
2023/08/27 01:30:05;;;;;;;11.23;8.18;;;;;;;14.74;99.11;98730.06;4844198;29;20424;-59
2023/08/27 01:33:13;;;;;;;11.73;7.97;;;;;;;14.68;98.06;98728.53;4861936;29;20098;-58
2023/08/27 01:35:39;;;;;;;10.95;8.00;;;;;;;14.67;98.40;98730.38;4861057;29;20136;-58
2023/08/27 01:38:04;;;;;;;10.52;7.95;;;;;;;14.72;98.16;98735.69;4861851;29;20522;-58
2023/08/27 01:40:30;;;;;;;10.85;8.23;;;;;;;14.73;98.40;98734.59;4844939;29;20048;-60
2023/08/27 01:42:56;;;;;;;11.27;8.60;;;;;;;14.75;97.76;98731.66;4859429;29;20132;-58
2023/08/27 01:45:22;;;;;;;12.88;8.10;;;;;;;14.74;98.09;98728.19;4861516;29;20045;-60
2023/08/27 01:47:47;;;;;;;13.52;8.57;;;;;;;14.68;98.56;98726.66;4861732;29;20053;-58
2023/08/27 01:50:13;;;;;;;12.80;8.52;;;;;;;14.71;98.46;98727.97;4860240;29;20050;-59
2023/08/27 01:52:39;;;;;;;13.48;9.32;;;;;;;14.67;98.84;98722.38;4860226;29;20555;-58
2023/08/27 01:55:05;;;;;;;12.93;8.27;;;;;;;14.64;99.15;98724.81;4860375;29;20568;-60
2023/08/27 01:57:31;;;;;;;10.85;7.70;;;;;;;14.69;99.11;98719.44;4875341;29;20063;-58
2023/08/27 01:59:57;;;;;;;10.40;8.43;;;;;;;14.75;98.66;98731.66;4844752;29;20060;-59
2023/08/27 02:02:23;;;;;;;10.75;7.72;;;;;;;14.80;98.13;98731.63;4859960;29;20085;-58
2023/08/27 02:04:49;;;;;;;12.90;8.20;;;;;;;14.81;97.52;98727.06;4859824;29;20091;-60
2023/08/27 02:07:17;;;;;;;9.90;7.40;;;;;;;14.82;96.87;98731.31;4861141;29;20054;-59
2023/08/27 02:09:44;;;;;;;10.00;7.03;;;;;;;14.75;96.71;98732.44;4859146;29;20500;-59
2023/08/27 02:12:10;;;;;;;8.40;6.35;;;;;;;14.74;95.77;98725.53;4859568;29;20358;-58
2023/08/27 02:14:36;;;;;;;10.48;7.30;;;;;;;14.75;95.96;98726.31;4859654;29;20105;-58
2023/08/27 02:17:22;;;;;;;9.02;6.60;;;;;;;14.76;95.86;98733.25;4847306;29;20476;-59
2023/08/27 02:19:48;;;;;;;10.93;7.43;;;;;;;14.81;96.00;98738.53;4859641;29;20055;-59
2023/08/27 02:22:19;;;;;;;13.23;9.00;;;;;;;14.83;95.52;98733.72;4859721;29;20495;-58
2023/08/27 02:24:45;;;;;;;14.10;9.25;;;;;;;14.87;95.88;98736.63;4859627;29;20049;-60
2023/08/27 02:27:12;;;;;;;14.70;10.02;;;;;;;14.86;96.40;98735.03;4861091;29;20053;-58
2023/08/27 02:29:37;;;;;;;13.85;9.70;;;;;;;14.88;95.92;98738.19;4859526;29;20052;-59
2023/08/27 02:32:03;;;;;;;15.60;9.95;;;;;;;14.89;95.72;98735.25;4860418;29;20053;-57
2023/08/27 02:34:29;;;;;;;15.35;9.15;;;;;;;14.92;95.20;98736.59;4859350;29;20088;-59
2023/08/27 02:36:55;;;;;;;17.20;9.55;;;;;;;14.91;95.34;98732.31;4843927;29;20105;-59
2023/08/27 02:39:21;;;;;;;18.08;10.63;;;;;;;14.93;95.00;98735.50;4859328;29;20088;-59
2023/08/27 02:41:47;;;;;;;16.60;10.48;;;;;;;14.94;95.11;98737.91;4860769;29;20085;-55
2023/08/27 02:44:13;;;;;;;16.08;10.50;;;;;;;14.91;95.61;98735.78;4859238;29;20077;-60
2023/08/27 02:46:38;;;;;;;12.77;8.57;;;;;;;14.90;94.86;98731.50;4860363;29;20057;-58
2023/08/27 02:49:04;;;;;;;12.93;8.98;;;;;;;14.92;95.25;98732.03;4859206;29;20475;-61
2023/08/27 02:51:29;;;;;;;11.40;8.65;;;;;;;14.94;94.56;98729.06;4859053;29;20424;-57
2023/08/27 02:53:55;;;;;;;16.02;10.30;;;;;;;14.89;94.90;98731.81;4858190;29;20080;-59
2023/08/27 02:56:21;;;;;;;14.35;9.70;;;;;;;14.88;95.54;98719.53;4857928;29;20068;-59
2023/08/27 02:58:48;;;;;;;14.48;9.13;;;;;;;14.86;95.44;98732.38;4858878;29;20054;-58
2023/08/27 03:01:21;;;;;;;17.20;9.60;;;;;;;14.85;95.60;98736.09;4859003;29;20056;-59
2023/08/27 03:03:48;;;;;;;14.52;9.07;;;;;;;14.87;95.02;98731.28;4859067;29;20440;-57
2023/08/27 03:06:14;;;;;;;12.00;8.35;;;;;;;14.91;94.68;98732.31;4833045;29;20050;-57
2023/08/27 03:08:40;;;;;;;12.55;8.75;;;;;;;14.92;94.49;98729.38;4858737;29;20181;-56
2023/08/27 03:11:06;;;;;;;14.10;8.88;;;;;;;14.91;94.35;98729.63;4843452;29;20050;-59
2023/08/27 03:13:31;;;;;;;13.60;9.27;;;;;;;14.85;93.88;98738.75;4858957;29;20050;-57
2023/08/27 03:15:58;;;;;;;13.70;9.18;;;;;;;14.78;94.09;98731.09;4859737;29;20096;-58
2023/08/27 03:18:24;;;;;;;15.45;10.63;;;;;;;14.83;94.18;98724.94;4843351;29;20061;-58
2023/08/27 03:20:51;;;;;;;26.88;14.57;;;;;;;14.89;94.09;98729.94;4828150;29;20193;-57
2023/08/27 03:23:18;;;;;;;22.40;14.60;;;;;;;14.93;93.71;98730.94;4858079;29;20149;-58
2023/08/27 03:25:43;;;;;;;22.17;14.18;;;;;;;15.01;93.08;98737.56;4858463;29;20045;-59
2023/08/27 03:28:09;;;;;;;20.10;14.48;;;;;;;15.03;92.75;98727.41;4858408;29;20461;-58
2023/08/27 03:30:34;;;;;;;16.92;10.32;;;;;;;15.01;92.98;98745.56;4857559;29;20057;-60
2023/08/27 03:33:00;;;;;;;12.85;8.52;;;;;;;15.01;93.03;98740.22;4859945;29;20452;-58
2023/08/27 03:35:27;;;;;;;11.90;7.82;;;;;;;14.98;93.04;98732.78;4858708;29;20047;-59
2023/08/27 03:37:53;;;;;;;14.30;10.60;;;;;;;15.03;92.56;98731.91;4859865;29;20534;-58
2023/08/27 03:40:20;;;;;;;16.10;10.48;;;;;;;15.03;91.70;98727.41;4858329;29;20132;-60
2023/08/27 03:42:46;;;;;;;14.32;10.15;;;;;;;15.04;91.59;98728.19;4859371;29;20049;-58
2023/08/27 03:45:11;;;;;;;10.63;7.30;;;;;;;15.05;91.46;98727.91;4859777;29;20089;-59
2023/08/27 03:47:37;;;;;;;13.15;9.55;;;;;;;15.09;90.94;98736.13;4858093;29;20060;-58
2023/08/27 03:50:04;;;;;;;11.52;7.38;;;;;;;15.10;90.79;98738.53;4859728;29;20465;-58
2023/08/27 03:52:30;;;;;;;10.25;6.60;;;;;;;15.13;90.33;98727.28;4842817;29;20060;-58
2023/08/27 03:54:56;;;;;;;8.88;6.38;;;;;;;15.18;90.21;98729.13;4858091;29;20049;-58
2023/08/27 03:57:21;;;;;;;7.97;6.43;;;;;;;15.19;90.05;98726.16;4858257;29;20045;-59
2023/08/27 03:59:47;;;;;;;14.35;6.47;;;;;;;15.19;90.20;98731.50;4858067;29;20068;-59
2023/08/27 04:02:14;;;;;;;7.97;6.13;;;;;;;15.18;90.35;98727.25;4859441;29;20045;-59
2023/08/27 04:04:40;;;;;;;10.20;6.70;;;;;;;15.21;89.59;98716.00;4857849;29;20042;-59
2023/08/27 04:07:05;;;;;;;9.98;7.47;;;;;;;15.22;89.34;98709.56;4823320;29;20050;-58
2023/08/27 04:09:32;;;;;;;9.02;6.93;;;;;;;15.25;89.29;98715.41;4839488;29;20050;-58
2023/08/27 04:11:57;;;;;;;9.60;6.80;;;;;;;15.27;89.22;98718.63;4839359;29;20137;-58
2023/08/27 04:14:23;;;;;;;10.15;6.35;;;;;;;15.22;89.08;98711.44;4838634;29;20121;-58
2023/08/27 04:16:49;;;;;;;9.75;6.65;;;;;;;15.16;89.59;98710.69;4854741;29;20046;-58
2023/08/27 04:19:14;;;;;;;11.52;6.68;;;;;;;15.13;90.23;98719.28;4839483;29;20034;-60
2023/08/27 04:21:40;;;;;;;9.25;7.00;;;;;;;15.16;89.92;98715.25;4840727;29;20420;-59
2023/08/27 04:24:06;;;;;;;8.05;6.20;;;;;;;15.25;89.76;98710.88;4839456;29;20523;-59
2023/08/27 04:26:32;;;;;;;9.07;7.15;;;;;;;15.21;88.97;98689.28;4839310;29;20057;-59
2023/08/27 04:28:57;;;;;;;12.00;8.80;;;;;;;15.12;89.78;98690.22;4839542;29;20054;-59
2023/08/27 04:31:23;;;;;;;11.73;8.57;;;;;;;15.07;89.67;98696.38;4839622;29;20045;-58
2023/08/27 04:33:49;;;;;;;9.65;7.97;;;;;;;15.10;89.61;98689.69;4839411;29;20092;-58
2023/08/27 04:36:14;;;;;;;10.25;8.13;;;;;;;15.11;89.59;98692.06;4840691;29;20089;-59
2023/08/27 04:38:40;;;;;;;10.68;7.60;;;;;;;15.12;89.59;98693.66;4839201;29;20140;-59
2023/08/27 04:41:06;;;;;;;10.35;8.63;;;;;;;15.11;89.95;98702.75;4843822;29;20048;-59
2023/08/27 04:43:31;;;;;;;11.23;8.93;;;;;;;15.22;89.74;98688.22;4857727;29;20081;-60
2023/08/27 04:45:57;;;;;;;11.32;9.25;;;;;;;15.31;89.01;98688.38;4857864;29;20508;-59
2023/08/27 04:48:23;;;;;;;12.07;9.50;;;;;;;15.35;88.52;98688.59;4857498;29;20093;-57
2023/08/27 04:50:49;;;;;;;15.65;11.20;;;;;;;15.38;87.65;98686.16;4842168;29;20097;-60
2023/08/27 04:53:14;;;;;;;13.20;11.10;;;;;;;15.42;87.46;98695.19;4858961;29;20053;-57
2023/08/27 04:55:40;;;;;;;13.50;10.90;;;;;;;15.48;85.77;98692.47;4858924;29;20042;-60
2023/08/27 04:58:08;;;;;;;12.57;10.52;;;;;;;15.64;85.27;98707.19;4857652;29;20053;-58
2023/08/27 05:00:34;;;;;;;12.90;10.35;;;;;;;15.72;84.69;98703.91;4857528;29;20050;-57
2023/08/27 05:03:01;;;;;;;14.68;11.55;;;;;;;15.72;84.25;98695.91;4858224;29;20198;-57
2023/08/27 05:05:27;;;;;;;13.45;11.07;;;;;;;15.67;84.31;98694.09;4858494;29;20054;-57
2023/08/27 05:07:53;;;;;;;14.77;11.40;;;;;;;15.66;84.41;98691.69;4858590;29;20061;-58
2023/08/27 05:10:18;;;;;;;14.68;11.02;;;;;;;15.75;83.56;98699.88;4857568;29;20037;-58
2023/08/27 05:12:45;;;;;;;11.63;9.98;;;;;;;15.87;83.39;98700.25;4858896;29;20064;-58
2023/08/27 05:15:11;;;;;;;13.52;10.50;;;;;;;15.90;82.93;98705.00;4872573;29;20057;-57
2023/08/27 05:17:37;;;;;;;15.40;10.93;;;;;;;15.93;82.97;98715.13;4843512;29;20094;-58
2023/08/27 05:20:04;;;;;;;13.07;10.88;;;;;;;16.03;81.96;98719.53;4860801;29;20050;-59
2023/08/27 05:22:30;;;;;;;12.43;10.25;;;;;;;16.16;81.34;98718.03;4862221;29;20084;-58
2023/08/27 05:24:56;;;;;;;14.00;10.55;;;;;;;16.24;80.73;98718.16;4862227;29;20120;-59
2023/08/27 05:27:21;;;;;;;13.57;11.48;;;;;;;16.29;80.59;98719.94;4859761;29;20052;-58
2023/08/27 05:29:47;;;;;;;15.45;10.20;;;;;;;16.25;80.99;98714.38;4860627;29;20281;-59
2023/08/27 05:32:13;;;;;;;12.45;10.55;;;;;;;16.24;80.66;98723.50;4845132;29;20101;-58
2023/08/27 05:34:40;;;;;;;12.48;10.75;;;;;;;16.29;80.36;98720.75;4860455;29;20045;-59
2023/08/27 05:37:06;;;;;;;13.63;10.68;;;;;;;16.36;80.07;98725.75;4859560;29;20105;-57
2023/08/27 05:39:33;;;;;;;11.27;9.75;;;;;;;16.38;79.54;98726.22;4860447;29;20120;-57
2023/08/27 05:41:59;;;;;;;10.63;9.38;;;;;;;16.38;80.24;98728.09;4861596;29;20060;-58
2023/08/27 05:44:24;;;;;;;10.13;8.70;;;;;;;16.40;80.19;98737.44;4860316;29;20049;-62
2023/08/27 05:46:50;;;;;;;11.57;8.93;;;;;;;16.55;79.60;98741.75;4844224;29;20197;-59
2023/08/27 05:49:17;;;;;;;11.07;9.85;;;;;;;16.64;78.98;98742.66;4844937;29;20077;-59
2023/08/27 05:51:45;;;;;;;9.80;8.52;;;;;;;16.70;78.17;98736.13;4860124;29;20049;-58
2023/08/27 05:54:11;;;;;;;10.32;9.18;;;;;;;16.75;78.11;98728.03;4844785;29;20042;-59
2023/08/27 05:56:37;;;;;;;11.70;9.20;;;;;;;16.85;77.82;98728.97;4844441;29;20041;-59
2023/08/27 05:59:02;;;;;;;10.07;8.30;;;;;;;17.05;76.99;98717.09;4860157;29;20057;-59
2023/08/27 06:01:28;;;;;;;9.68;8.07;;;;;;;17.11;75.62;98714.03;4861006;29;20534;-59
2023/08/27 06:03:55;;;;;;;11.52;8.57;;;;;;;17.16;75.57;98719.31;4859985;29;20049;-56
2023/08/27 06:06:21;;;;;;;10.65;8.82;;;;;;;17.18;75.54;98719.03;4859958;29;20133;-58
2023/08/27 06:08:46;;;;;;;9.07;7.45;;;;;;;17.23;75.18;98722.38;4861452;29;20105;-58
2023/08/27 06:11:12;;;;;;;11.85;9.32;;;;;;;17.29;74.91;98724.97;4859623;29;20049;-58
2023/08/27 06:13:38;;;;;;;10.38;8.85;;;;;;;17.21;74.24;98718.44;4859994;29;20061;-57
2023/08/27 06:16:04;;;;;;;11.75;8.25;;;;;;;17.23;74.52;98725.03;4859810;29;20460;-57
2023/08/27 06:18:29;;;;;;;11.50;7.78;;;;;;;17.36;74.13;98733.41;4844359;29;20078;-59
2023/08/27 06:20:55;;;;;;;9.63;8.20;;;;;;;17.45;73.86;98735.09;4860058;29;20053;-59
2023/08/27 06:23:21;;;;;;;10.27;7.90;;;;;;;17.58;73.47;98733.47;4859746;29;20385;-59
2023/08/27 06:25:47;;;;;;;12.63;8.02;;;;;;;17.82;72.11;98748.56;4859610;29;20132;-59
2023/08/27 06:28:15;;;;;;;8.50;7.60;;;;;;;18.07;70.91;98739.97;4860453;29;20106;-56
2023/08/27 06:30:42;;;;;;;8.85;7.95;;;;;;;18.29;70.22;98741.09;4859376;29;20466;-59
2023/08/27 06:33:11;;;;;;;10.82;8.25;;;;;;;18.48;69.41;98738.25;4843434;29;20064;-59
2023/08/27 06:35:37;;;;;;;9.35;8.35;;;;;;;18.59;69.13;98740.38;4844423;29;20126;-59
2023/08/27 06:38:04;;;;;;;13.80;10.55;;;;;;;18.69;69.00;98735.88;4859566;29;20053;-60
2023/08/27 06:40:30;;;;;;;15.77;11.82;;;;;;;18.76;68.12;98725.50;4859331;29;20077;-60
2023/08/27 06:42:56;;;;;;;17.52;11.43;;;;;;;18.78;67.64;98729.47;4860683;29;20141;-59
2023/08/27 06:45:23;;;;;;;15.85;11.07;;;;;;;18.87;67.29;98732.22;4859264;29;20536;-58
2023/08/27 06:47:49;;;;;;;13.55;11.13;;;;;;;18.87;66.70;98729.53;4859280;29;20084;-59
2023/08/27 06:50:15;;;;;;;13.15;10.65;;;;;;;18.89;66.14;98732.69;4842840;29;20177;-60
2023/08/27 06:52:41;;;;;;;12.95;10.80;;;;;;;18.95;66.08;98722.63;4860394;29;20045;-58
2023/08/27 06:55:07;;;;;;;12.70;10.77;;;;;;;19.02;65.80;98728.31;4859079;29;20094;-59
2023/08/27 06:57:33;;;;;;;13.00;9.98;;;;;;;19.12;65.87;98725.38;4860440;29;20053;-58
2023/08/27 07:00:01;;;;;;;11.75;10.55;;;;;;;19.05;65.27;98735.78;4859081;29;20152;-57
2023/08/27 07:02:29;;;;;;;13.05;11.30;;;;;;;18.86;66.54;98745.94;4858928;29;20049;-58
2023/08/27 07:04:55;;;;;;;13.05;11.05;;;;;;;18.97;67.02;98747.25;4870537;29;20045;-59
2023/08/27 07:07:21;;;;;;;13.10;11.25;;;;;;;19.13;66.98;98743.06;4861223;29;20124;-58
2023/08/27 07:09:47;;;;;;;14.75;11.73;;;;;;;19.17;66.04;98737.88;4860627;29;20117;-61
2023/08/27 07:12:12;;;;;;;14.10;11.30;;;;;;;19.30;66.37;98739.69;4858144;29;20057;-58
2023/08/27 07:14:39;;;;;;;14.73;11.30;;;;;;;19.39;65.39;98747.78;4858188;29;20069;-59
2023/08/27 07:17:05;;;;;;;12.90;11.23;;;;;;;19.42;64.95;98747.16;4858451;29;20369;-59
2023/08/27 07:19:31;;;;;;;13.27;11.55;;;;;;;19.43;64.87;98743.34;4858171;29;20105;-60
2023/08/27 07:21:57;;;;;;;19.48;15.10;;;;;;;19.55;64.52;98742.75;4858033;29;20564;-58
2023/08/27 07:24:23;;;;;;;14.00;12.40;;;;;;;19.53;64.70;98732.34;4873729;29;20042;-58
2023/08/27 07:26:48;;;;;;;9.98;8.98;;;;;;;19.42;64.43;98734.50;4858452;29;20056;-58
2023/08/27 07:29:14;;;;;;;10.00;9.00;;;;;;;19.13;65.25;98729.66;4858379;29;20508;-59
2023/08/27 07:31:40;;;;;;;12.63;10.20;;;;;;;18.96;65.90;98722.28;4843223;29;20049;-58
2023/08/27 07:34:06;;;;;;;14.50;10.05;;;;;;;18.98;67.04;98724.69;4858699;29;20085;-60
2023/08/27 07:36:32;;;;;;;11.95;9.27;;;;;;;19.04;66.86;98728.81;4858251;29;20081;-59
2023/08/27 07:38:58;;;;;;;11.02;9.10;;;;;;;18.96;67.26;98721.50;4858328;29;20534;-58
2023/08/27 07:41:23;;;;;;;9.23;8.30;;;;;;;19.02;65.87;98728.31;4857989;29;20512;-58
2023/08/27 07:43:49;;;;;;;9.55;8.63;;;;;;;19.07;65.57;98720.16;4858152;29;20053;-57
2023/08/27 07:46:17;;;;;;;11.27;9.00;;;;;;;19.08;65.96;98724.41;4858354;29;20048;-58
2023/08/27 07:48:42;;;;;;;12.45;8.50;;;;;;;19.43;65.21;98722.63;4858195;29;20076;-56
2023/08/27 07:51:08;;;;;;;11.45;7.18;;;;;;;19.52;64.83;98719.97;4858095;29;20049;-57
2023/08/27 07:53:36;;;;;;;10.27;7.60;;;;;;;19.44;65.14;98693.88;4858160;29;20455;-57
2023/08/27 07:56:02;;;;;;;9.30;7.28;;;;;;;19.58;65.18;98705.28;4858265;29;20041;-55
2023/08/27 07:58:30;;;;;;;8.20;7.20;;;;;;;19.51;64.92;98689.63;4842648;29;20495;-57
2023/08/27 08:00:58;;;;;;;8.20;7.25;;;;;;;19.43;64.88;98690.38;4858274;29;20142;-59
2023/08/27 08:03:24;;;;;;;9.20;7.03;;;;;;;19.33;64.71;98693.38;4842658;29;20120;-59
2023/08/27 08:05:50;;;;;;;14.02;7.10;;;;;;;19.29;64.85;98698.59;4858724;29;20085;-59
2023/08/27 08:08:15;;;;;;;9.73;6.97;;;;;;;19.29;64.71;98693.22;4859313;29;20049;-55
2023/08/27 08:10:41;;;;;;;9.23;7.22;;;;;;;19.27;64.65;98700.78;4842586;29;20086;-60
2023/08/27 08:13:07;;;;;;;9.95;6.95;;;;;;;19.26;64.32;98704.56;4860288;29;20045;-57
2023/08/27 08:15:33;;;;;;;7.85;6.47;;;;;;;19.29;64.90;98695.09;4858878;29;20436;-56
2023/08/27 08:17:59;;;;;;;7.72;5.97;;;;;;;19.38;64.67;98690.53;4858243;29;20045;-58
2023/08/27 08:20:25;;;;;;;8.40;5.68;;;;;;;19.49;63.85;98689.13;4857987;29;20046;-57
2023/08/27 08:22:50;;;;;;;8.15;6.55;;;;;;;19.60;64.41;98691.53;4859259;29;20064;-56
2023/08/27 08:25:16;;;;;;;8.60;5.20;;;;;;;19.63;63.98;98699.75;4857802;29;20089;-59
2023/08/27 08:27:42;;;;;;;6.25;5.05;;;;;;;19.57;63.60;98695.66;4857958;29;20057;-58
2023/08/27 08:30:07;;;;;;;5.82;5.22;;;;;;;19.64;63.29;98703.25;4858455;29;20550;-59
2023/08/27 08:32:33;;;;;;;5.05;4.57;;;;;;;19.61;63.21;98706.56;4857726;29;20058;-58
2023/08/27 08:34:59;;;;;;;5.00;4.50;;;;;;;19.66;62.07;98695.69;4858924;29;20045;-58
2023/08/27 08:37:25;;;;;;;6.65;5.75;;;;;;;19.79;61.20;98694.75;4858958;29;20059;-57
2023/08/27 08:39:51;;;;;;;5.35;4.85;;;;;;;19.89;61.07;98690.97;4858924;29;20516;-59
2023/08/27 08:42:40;;;;;;;7.03;4.82;;;;;;;19.95;60.79;98693.19;4858931;29;20064;-57
2023/08/27 08:45:05;;;;;;;5.78;4.60;;;;;;;20.01;60.81;98688.44;4857875;29;20137;-57
2023/08/27 08:47:35;;;;;;;4.85;4.18;;;;;;;19.92;61.06;98693.03;4859101;29;20098;-57
2023/08/27 08:50:04;;;;;;;5.82;4.05;;;;;;;19.92;60.25;98696.50;4859128;29;20072;-58
2023/08/27 08:52:40;;;;;;;5.05;4.15;;;;;;;20.01;60.34;98701.09;4860164;29;20049;-57
2023/08/27 08:55:08;;;;;;;6.80;4.32;;;;;;;20.23;59.66;98700.94;4862550;29;20120;-60
2023/08/27 08:57:37;;;;;;;7.43;4.90;;;;;;;20.31;59.55;98696.66;4862460;29;20050;-58
2023/08/27 09:00:03;;;;;;;4.70;4.20;;;;;;;20.24;60.33;98701.75;4845789;29;20045;-60
2023/08/27 09:02:29;;;;;;;5.63;4.35;;;;;;;20.09;60.80;98698.41;4845676;29;20049;-58
2023/08/27 09:04:56;;;;;;;5.90;3.90;;;;;;;19.93;60.41;98692.69;4862539;29;20056;-59
2023/08/27 09:07:23;;;;;;;4.93;4.00;;;;;;;19.90;61.20;98693.34;4830357;29;20046;-58
2023/08/27 09:09:51;;;;;;;6.18;4.15;;;;;;;19.79;61.05;98691.28;4860838;29;20106;-58
2023/08/27 09:12:19;;;;;;;8.40;5.40;;;;;;;19.77;61.14;98696.97;4828560;29;20141;-58
2023/08/27 09:14:45;;;;;;;4.97;4.13;;;;;;;19.92;60.42;98693.81;4858523;29;20222;-57
2023/08/27 09:17:13;;;;;;;5.20;4.60;;;;;;;20.06;59.86;98696.38;4844973;29;20508;-58
2023/08/27 09:19:39;;;;;;;9.07;4.43;;;;;;;20.24;59.40;98697.16;4861937;29;20057;-59
2023/08/27 09:22:05;;;;;;;6.85;3.70;;;;;;;20.49;58.64;98694.72;4860781;29;20076;-60
2023/08/27 09:24:31;;;;;;;5.60;3.70;;;;;;;20.70;58.08;98695.66;4815073;29;20041;-57
2023/08/27 09:26:57;;;;;;;4.22;3.75;;;;;;;20.92;57.73;98688.47;4860460;29;20512;-57
2023/08/27 09:29:24;;;;;;;6.57;4.00;;;;;;;21.12;56.35;98679.69;4859988;29;20428;-59
2023/08/27 09:31:55;;;;;;;4.55;3.35;;;;;;;21.36;55.33;98684.50;4859408;29;20050;-62
2023/08/27 09:34:21;;;;;;;4.55;3.20;;;;;;;21.40;55.34;98671.94;4860564;29;20060;-57
2023/08/27 09:36:47;;;;;;;6.90;3.70;;;;;;;21.35;55.00;98653.22;4860631;29;20404;-58
2023/08/27 09:39:12;;;;;;;4.10;3.28;;;;;;;21.31;55.46;98652.31;4860139;29;20052;-60
2023/08/27 09:41:40;;;;;;;6.22;3.95;;;;;;;21.53;55.29;98646.66;4844867;29;20084;-58
2023/08/27 09:44:06;;;;;;;7.25;3.95;;;;;;;21.74;54.69;98643.16;4860642;29;20506;-59
2023/08/27 09:46:33;;;;;;;4.88;3.47;;;;;;;21.92;53.98;98635.72;4861597;29;20049;-60
2023/08/27 09:49:01;;;;;;;6.32;3.67;;;;;;;21.95;53.83;98643.16;4861866;29;20053;-55
2023/08/27 09:51:31;;;;;;;4.32;3.67;;;;;;;21.93;54.09;98640.78;4861362;29;20041;-62
2023/08/27 09:53:56;;;;;;;3.70;3.13;;;;;;;21.88;53.97;98638.28;4861426;29;20041;-59
2023/08/27 09:56:24;;;;;;;9.80;3.50;;;;;;;21.80;53.47;98641.06;4861124;29;20101;-59
2023/08/27 09:58:55;;;;;;;3.50;3.20;;;;;;;21.82;53.75;98634.19;4814720;29;20046;-60
2023/08/27 10:01:34;;;;;;;4.97;3.40;;;;;;;21.83;53.91;98626.91;4860334;29;20471;-59
2023/08/27 10:04:07;;;;;;;5.50;3.50;;;;;;;21.98;53.27;98637.88;4857857;29;20049;-58
2023/08/27 10:06:37;;;;;;;4.25;3.28;;;;;;;22.02;52.39;98626.44;4857825;29;20500;-57
2023/08/27 10:09:03;;;;;;;5.03;3.20;;;;;;;22.24;52.00;98628.78;4860994;29;20365;-57
2023/08/27 10:11:29;;;;;;;3.67;2.88;;;;;;;22.38;51.62;98634.69;4861020;29;20041;-58
2023/08/27 10:13:57;;;;;;;3.38;3.00;;;;;;;22.40;51.09;98637.81;4859390;29;20037;-57
2023/08/27 10:16:23;;;;;;;4.57;3.10;;;;;;;22.34;50.66;98625.66;4858473;29;20041;-57
2023/08/27 10:18:48;;;;;;;4.38;3.38;;;;;;;22.41;50.91;98625.09;4860831;29;20060;-58
2023/08/27 10:21:15;;;;;;;5.53;3.47;;;;;;;22.43;50.73;98623.66;4858237;29;20041;-58
2023/08/27 10:23:41;;;;;;;5.05;3.30;;;;;;;22.39;50.55;98622.75;4838552;29;20125;-59
2023/08/27 10:26:08;;;;;;;3.55;3.03;;;;;;;22.18;50.62;98613.94;4842036;29;20501;-58
2023/08/27 10:28:35;;;;;;;5.57;2.80;;;;;;;22.20;50.65;98606.28;4840007;29;20054;-57
2023/08/27 10:31:02;;;;;;;4.65;2.83;;;;;;;22.19;50.92;98623.59;4842280;29;20042;-59
2023/08/27 10:33:27;;;;;;;6.15;3.90;;;;;;;22.38;50.12;98614.97;4842113;29;20489;-61
2023/08/27 10:35:54;;;;;;;3.70;3.30;;;;;;;22.53;49.64;98613.53;4839940;29;20056;-58
2023/08/27 10:38:22;;;;;;;4.15;3.10;;;;;;;22.55;49.64;98598.56;4840635;29;20050;-59
2023/08/27 10:40:48;;;;;;;3.60;3.20;;;;;;;22.55;49.91;98593.19;4840715;29;20041;-60
2023/08/27 10:43:18;;;;;;;4.65;3.30;;;;;;;22.62;49.44;98596.13;4840600;29;20414;-59
2023/08/27 10:45:44;;;;;;;5.20;3.33;;;;;;;22.78;49.60;98601.66;4840578;29;20483;-57
2023/08/27 10:48:16;;;;;;;6.65;3.67;;;;;;;22.87;48.59;98601.53;4841590;29;20136;-56
2023/08/27 10:50:55;;;;;;;8.32;3.10;;;;;;;22.86;49.16;98597.25;4841181;29;20618;-58
2023/08/27 10:53:21;;;;;;;5.45;3.00;;;;;;;22.88;48.77;98603.91;4840482;29;20045;-55
2023/08/27 10:55:51;;;;;;;4.00;2.80;;;;;;;22.90;48.46;98607.03;4840288;29;20053;-59
2023/08/27 10:58:23;;;;;;;5.03;2.60;;;;;;;23.05;47.69;98612.94;4841721;29;20087;-58
2023/08/27 11:01:12;;;;;;;4.38;2.78;;;;;;;22.87;47.82;98612.34;4841653;29;20073;-58
2023/08/27 11:03:57;;;;;;;5.70;2.90;;;;;;;22.86;48.06;98613.47;4840631;29;20050;-59
2023/08/27 11:06:45;;;;;;;3.88;2.83;;;;;;;22.80;47.80;98622.94;4841268;29;20050;-59
2023/08/27 11:09:14;;;;;;;4.70;3.08;;;;;;;22.53;48.27;98608.13;4853123;29;20041;-57
2023/08/27 11:11:43;;;;;;;4.60;2.80;;;;;;;22.42;48.94;98607.81;4859559;29;20105;-59
2023/08/27 11:14:08;;;;;;;3.20;2.88;;;;;;;22.56;48.29;98602.06;4858035;29;20428;-59
2023/08/27 11:16:57;;;;;;;4.88;3.13;;;;;;;22.80;47.72;98604.81;4859311;29;20048;-60
2023/08/27 11:19:34;;;;;;;4.50;2.67;;;;;;;22.88;47.47;98606.63;4859335;29;20053;-59
2023/08/27 11:22:10;;;;;;;6.57;2.95;;;;;;;23.06;46.79;98612.59;4859640;29;20076;-58
2023/08/27 11:24:43;;;;;;;3.17;2.53;;;;;;;23.26;46.74;98610.09;4859683;29;20061;-62
2023/08/27 11:27:09;;;;;;;4.88;2.65;;;;;;;23.41;46.34;98608.59;4859626;29;20473;-59